createdAt,value
2023-05-18T00:02:21.823Z,6.80
2023-05-18T00:04:49.116Z,6.70
2023-05-18T00:07:16.316Z,6.70
2023-05-18T00:09:43.708Z,6.60
2023-05-18T00:12:10.887Z,6.60
2023-05-18T00:14:38.131Z,6.60
2023-05-18T00:17:05.595Z,6.60
2023-05-18T00:19:32.691Z,6.60
2023-05-18T00:22:02.470Z,6.50
2023-05-18T00:24:29.805Z,6.50
2023-05-18T00:26:57.070Z,6.50
2023-05-18T00:29:24.297Z,6.50
2023-05-18T00:31:51.659Z,6.50
2023-05-18T00:34:19.008Z,6.50
2023-05-18T00:36:46.500Z,6.50
2023-05-18T00:39:13.903Z,6.50
2023-05-18T00:41:41.279Z,6.40
2023-05-18T00:44:08.777Z,6.40
2023-05-18T00:46:36.985Z,6.40
2023-05-18T00:49:05.016Z,6.30
2023-05-18T00:51:33.650Z,6.30
2023-05-18T00:54:03.924Z,6.30
2023-05-18T00:56:34.599Z,6.30
2023-05-18T00:59:03.664Z,6.30
2023-05-18T01:01:35.231Z,6.30
2023-05-18T01:04:05.579Z,6.30
2023-05-18T01:06:36.150Z,6.20
2023-05-18T01:09:07.362Z,6.10
2023-05-18T01:11:57.952Z,6.10
2023-05-18T01:14:34.354Z,6.10
2023-05-18T01:17:36.766Z,6.10
2023-05-18T01:20:15.899Z,6.00
2023-05-18T01:23:20.995Z,6.00
2023-05-18T01:25:54.580Z,6.00
2023-05-18T01:28:33.815Z,6.00
2023-05-18T01:31:02.038Z,5.90
2023-05-18T01:33:29.955Z,5.90
2023-05-18T01:35:57.431Z,5.90
2023-05-18T01:38:26.310Z,5.90
2023-05-18T01:40:59.548Z,5.90
2023-05-18T01:43:38.033Z,5.80
2023-05-18T01:46:18.656Z,5.80
2023-05-18T01:48:54.579Z,5.80
2023-05-18T01:51:23.648Z,5.80
2023-05-18T01:54:08.357Z,5.80
2023-05-18T01:56:36.514Z,5.80
2023-05-18T01:59:04.268Z,5.80
2023-05-18T02:01:32.046Z,5.80
2023-05-18T02:03:59.729Z,5.80
2023-05-18T02:06:27.337Z,5.70
2023-05-18T02:08:55.772Z,5.70
2023-05-18T02:11:23.346Z,5.70
2023-05-18T02:13:50.701Z,5.70
2023-05-18T02:16:18.062Z,5.70
2023-05-18T02:18:45.470Z,5.70
2023-05-18T02:21:14.211Z,5.60
2023-05-18T02:23:42.194Z,5.60
2023-05-18T02:26:09.326Z,5.60
2023-05-18T02:28:40.230Z,5.60
2023-05-18T02:31:09.375Z,5.50
2023-05-18T02:33:40.302Z,5.50
2023-05-18T02:36:12.719Z,5.50
2023-05-18T02:38:42.608Z,5.50
2023-05-18T02:41:11.080Z,5.50
2023-05-18T02:43:38.269Z,5.40
2023-05-18T02:46:05.778Z,5.30
2023-05-18T02:48:33.113Z,5.30
2023-05-18T02:51:00.437Z,5.30
2023-05-18T02:53:28.008Z,5.20
2023-05-18T02:55:59.015Z,5.20
2023-05-18T02:58:27.463Z,5.20
2023-05-18T03:00:55.902Z,5.10
2023-05-18T03:03:24.225Z,5.10
2023-05-18T03:05:54.590Z,5.10
2023-05-18T03:08:27.911Z,5.10
2023-05-18T03:11:01.623Z,5.00
2023-05-18T03:13:29.117Z,5.00
2023-05-18T03:15:57.084Z,5.00
2023-05-18T03:18:25.569Z,4.90
2023-05-18T03:20:52.987Z,4.90
2023-05-18T03:23:20.727Z,4.90
2023-05-18T03:25:54.798Z,4.90
2023-05-18T03:28:22.723Z,4.90
2023-05-18T03:30:50.080Z,4.90
2023-05-18T03:33:17.467Z,4.90
2023-05-18T03:35:46.424Z,4.90
2023-05-18T03:38:15.252Z,4.90
2023-05-18T03:40:43.101Z,4.90
2023-05-18T03:43:10.417Z,4.90
2023-05-18T03:45:37.753Z,4.90
2023-05-18T03:48:05.319Z,5.00
2023-05-18T03:50:32.884Z,5.00
2023-05-18T03:53:00.108Z,4.90
2023-05-18T03:55:27.810Z,4.90
2023-05-18T03:57:55.405Z,4.90
2023-05-18T04:00:22.601Z,4.90
2023-05-18T04:02:52.149Z,4.90
2023-05-18T04:05:19.913Z,4.90
2023-05-18T04:07:47.108Z,4.90
2023-05-18T04:10:15.280Z,5.00
2023-05-18T04:12:43.030Z,5.00
2023-05-18T04:15:13.575Z,5.00
2023-05-18T04:17:45.961Z,5.00
2023-05-18T04:20:14.892Z,5.00
2023-05-18T04:22:44.115Z,5.00
2023-05-18T04:25:12.007Z,5.00
2023-05-18T04:27:40.766Z,5.00
2023-05-18T04:30:11.059Z,5.00
2023-05-18T04:32:39.476Z,5.00
2023-05-18T04:35:07.888Z,5.10
2023-05-18T04:37:35.667Z,5.10
2023-05-18T04:40:07.910Z,5.20
2023-05-18T04:42:35.913Z,5.20
2023-05-18T04:45:06.341Z,5.30
2023-05-18T04:47:34.008Z,5.40
2023-05-18T04:50:02.499Z,5.40
2023-05-18T04:52:31.065Z,5.50
2023-05-18T04:54:58.411Z,5.60
2023-05-18T04:57:26.678Z,5.70
2023-05-18T04:59:54.446Z,5.80
2023-05-18T05:02:21.846Z,5.80
2023-05-18T05:04:49.232Z,5.90
2023-05-18T05:07:16.838Z,6.10
2023-05-18T05:09:44.157Z,6.10
2023-05-18T05:12:11.454Z,6.30
2023-05-18T05:14:38.657Z,6.40
2023-05-18T05:17:06.124Z,6.50
2023-05-18T05:19:33.413Z,6.60
2023-05-18T05:22:00.716Z,6.70
2023-05-18T05:24:27.895Z,6.80
2023-05-18T05:26:55.176Z,7.00
2023-05-18T05:29:22.673Z,7.10
2023-05-18T05:31:50.158Z,7.20
2023-05-18T05:34:17.521Z,7.40
2023-05-18T05:36:44.804Z,7.60
2023-05-18T05:39:12.289Z,7.70
2023-05-18T05:41:40.309Z,7.80
2023-05-18T05:44:08.224Z,7.90
2023-05-18T05:46:35.433Z,8.10
2023-05-18T05:49:02.774Z,8.20
2023-05-18T05:51:30.013Z,8.30
2023-05-18T05:53:57.284Z,8.40
2023-05-18T05:56:24.494Z,8.50
2023-05-18T05:58:52.068Z,8.60
2023-05-18T06:01:19.548Z,8.70
2023-05-18T06:03:46.832Z,8.80
2023-05-18T06:06:14.044Z,8.90
2023-05-18T06:08:41.336Z,8.90
2023-05-18T06:11:10.771Z,9.00
2023-05-18T06:13:38.930Z,9.10
2023-05-18T06:16:06.475Z,9.20
2023-05-18T06:18:35.253Z,9.20
2023-05-18T06:21:02.523Z,9.30
2023-05-18T06:23:29.675Z,9.40
2023-05-18T06:25:56.934Z,9.40
2023-05-18T06:28:24.402Z,9.50
2023-05-18T06:30:51.869Z,9.50
2023-05-18T06:33:21.383Z,9.60
2023-05-18T06:35:48.475Z,9.60
2023-05-18T06:38:15.926Z,9.70
2023-05-18T06:40:43.256Z,9.70
2023-05-18T06:43:10.470Z,9.70
2023-05-18T06:45:38.082Z,9.70
2023-05-18T06:48:08.988Z,9.70
2023-05-18T06:50:36.451Z,9.70
2023-05-18T06:53:04.611Z,9.70
2023-05-18T06:55:32.148Z,9.80
2023-05-18T06:57:59.907Z,9.80
2023-05-18T07:00:27.432Z,9.90
2023-05-18T07:02:54.725Z,10.00
2023-05-18T07:05:21.884Z,10.10
2023-05-18T07:07:49.484Z,10.10
2023-05-18T07:10:16.722Z,10.30
2023-05-18T07:12:43.838Z,10.30
2023-05-18T07:15:11.906Z,10.40
2023-05-18T07:17:39.406Z,10.40
2023-05-18T07:20:09.108Z,10.40
2023-05-18T07:22:36.492Z,10.50
2023-05-18T07:25:03.953Z,10.50
2023-05-18T07:27:31.662Z,10.50
2023-05-18T07:29:58.912Z,10.60
2023-05-18T07:32:26.242Z,10.60
2023-05-18T07:34:53.807Z,10.60
2023-05-18T07:37:21.042Z,10.70
2023-05-18T07:39:48.192Z,10.70
2023-05-18T07:42:15.784Z,10.80
2023-05-18T07:44:42.878Z,10.80
2023-05-18T07:47:10.316Z,10.90
2023-05-18T07:49:39.383Z,10.90
2023-05-18T07:52:08.682Z,10.90
2023-05-18T07:54:36.069Z,10.90
2023-05-18T07:57:04.486Z,11.00
2023-05-18T07:59:31.805Z,11.00
2023-05-18T08:02:00.373Z,11.10
2023-05-18T08:04:27.777Z,11.00
2023-05-18T08:06:56.442Z,11.10
2023-05-18T08:09:23.833Z,11.10
2023-05-18T08:11:51.965Z,11.20
2023-05-18T08:14:19.485Z,11.20
2023-05-18T08:16:46.951Z,11.30
2023-05-18T08:19:14.285Z,11.40
2023-05-18T08:21:41.718Z,11.40
2023-05-18T08:24:10.203Z,11.50
2023-05-18T08:26:37.571Z,11.60
2023-05-18T08:29:10.593Z,11.60
2023-05-18T08:31:38.825Z,11.70
2023-05-18T08:34:06.729Z,11.80
2023-05-18T08:36:35.625Z,11.90
2023-05-18T08:39:04.476Z,12.00
2023-05-18T08:41:36.489Z,12.00
2023-05-18T08:44:09.830Z,12.10
2023-05-18T08:46:42.842Z,12.20
2023-05-18T08:49:11.224Z,12.20
2023-05-18T08:51:41.177Z,12.20
2023-05-18T08:54:14.687Z,12.30
2023-05-18T08:56:41.860Z,12.40
2023-05-18T08:59:11.099Z,12.40
2023-05-18T09:01:38.468Z,12.40
2023-05-18T09:04:06.668Z,12.40
2023-05-18T09:06:36.340Z,12.50
2023-05-18T09:09:07.907Z,12.50
2023-05-18T09:11:36.087Z,12.60
2023-05-18T09:14:03.935Z,12.60
2023-05-18T09:16:33.912Z,12.80
2023-05-18T09:19:01.652Z,12.80
2023-05-18T09:21:32.671Z,13.00
2023-05-18T09:24:03.139Z,13.10
2023-05-18T09:26:30.736Z,13.30
2023-05-18T09:28:59.716Z,13.50
2023-05-18T09:31:27.999Z,13.70
2023-05-18T09:33:56.209Z,13.90
2023-05-18T09:36:28.561Z,14.10
2023-05-18T09:38:55.823Z,14.40
2023-05-18T09:41:27.542Z,14.70
2023-05-18T09:43:55.344Z,14.90
2023-05-18T09:46:22.883Z,15.00
2023-05-18T09:48:54.461Z,15.00
2023-05-18T09:51:25.699Z,14.90
2023-05-18T09:54:00.215Z,14.90
2023-05-18T09:56:27.712Z,14.80
2023-05-18T09:58:55.560Z,14.80
2023-05-18T10:01:23.635Z,14.60
2023-05-18T10:03:51.132Z,14.60
2023-05-18T10:06:20.330Z,14.70
2023-05-18T10:08:47.588Z,14.80
2023-05-18T10:11:19.964Z,15.00
2023-05-18T10:13:47.273Z,15.20
2023-05-18T10:16:17.199Z,15.50
2023-05-18T10:18:45.788Z,15.70
2023-05-18T10:21:14.756Z,16.00
2023-05-18T10:23:42.800Z,16.20
2023-05-18T10:26:11.005Z,16.30
2023-05-18T10:28:44.477Z,16.30
2023-05-18T10:31:11.973Z,16.40
2023-05-18T10:33:44.156Z,16.50
2023-05-18T10:36:11.802Z,16.60
2023-05-18T10:38:43.752Z,16.70
2023-05-18T10:41:12.555Z,16.80
2023-05-18T10:43:42.215Z,16.90
2023-05-18T10:46:10.251Z,16.90
2023-05-18T10:48:41.195Z,16.80
2023-05-18T10:51:08.925Z,16.70
2023-05-18T10:53:36.996Z,16.80
2023-05-18T10:56:04.652Z,16.90
2023-05-18T10:58:33.049Z,16.90
2023-05-18T11:01:03.423Z,16.90
2023-05-18T11:03:33.282Z,16.90
2023-05-18T11:06:09.355Z,16.90
2023-05-18T11:08:50.143Z,16.80
2023-05-18T11:11:19.500Z,16.70
2023-05-18T11:13:56.558Z,16.50
2023-05-18T11:16:35.069Z,16.50
2023-05-18T11:19:11.823Z,16.40
2023-05-18T11:21:41.954Z,16.50
2023-05-18T11:24:31.465Z,16.60
2023-05-18T11:27:01.276Z,16.70
2023-05-18T11:29:34.955Z,16.90
2023-05-18T11:32:02.859Z,17.10
2023-05-18T11:34:52.525Z,17.20
2023-05-18T11:37:38.592Z,17.30
2023-05-18T11:40:11.544Z,17.50
2023-05-18T11:42:39.655Z,17.50
2023-05-18T11:45:11.253Z,17.40
2023-05-18T11:47:42.687Z,17.40
2023-05-18T11:50:15.054Z,17.50
2023-05-18T11:52:50.227Z,17.50
2023-05-18T11:55:20.407Z,17.40
2023-05-18T11:57:52.980Z,17.30
2023-05-18T12:00:21.249Z,17.30
2023-05-18T12:02:49.856Z,17.40
2023-05-18T12:05:17.745Z,17.60
2023-05-18T12:07:52.259Z,17.80
2023-05-18T12:10:22.466Z,18.10
2023-05-18T12:12:53.165Z,18.40
2023-05-18T12:15:24.573Z,18.60
2023-05-18T12:17:52.911Z,18.70
2023-05-18T12:20:28.516Z,18.90
2023-05-18T12:22:57.226Z,19.10
2023-05-18T12:25:27.248Z,18.90
2023-05-18T12:27:55.614Z,18.80
2023-05-18T12:30:25.491Z,18.90
2023-05-18T12:32:55.473Z,19.00
2023-05-18T12:35:27.925Z,19.20
2023-05-18T12:37:57.065Z,19.20
2023-05-18T12:40:24.565Z,19.20
2023-05-18T12:43:07.401Z,19.20
2023-05-18T12:45:35.208Z,19.20
2023-05-18T12:48:07.269Z,19.30
2023-05-18T12:50:35.431Z,19.40
2023-05-18T12:53:02.753Z,19.40
2023-05-18T12:55:33.828Z,19.40
2023-05-18T12:58:03.800Z,19.40
2023-05-18T13:00:36.339Z,19.30
2023-05-18T13:03:08.001Z,19.20
2023-05-18T13:05:36.170Z,19.10
2023-05-18T13:08:03.368Z,19.00
2023-05-18T13:10:32.659Z,19.10
2023-05-18T13:13:06.574Z,19.30
2023-05-18T13:15:36.071Z,19.30
2023-05-18T13:18:11.552Z,19.30
2023-05-18T13:20:51.060Z,19.20
2023-05-18T13:23:20.392Z,19.10
2023-05-18T13:25:48.350Z,18.90
2023-05-18T13:28:17.689Z,18.80
2023-05-18T13:30:46.271Z,18.60
2023-05-18T13:33:13.539Z,18.50
2023-05-18T13:35:42.915Z,18.40
2023-05-18T13:38:14.394Z,18.40
2023-05-18T13:40:42.372Z,18.40
2023-05-18T13:43:11.240Z,18.50
2023-05-18T13:45:41.208Z,18.50
2023-05-18T13:48:10.704Z,18.60
2023-05-18T13:50:40.014Z,18.70
2023-05-18T13:53:07.290Z,18.80
2023-05-18T13:55:34.843Z,18.70
2023-05-18T13:58:02.203Z,18.80
2023-05-18T14:00:29.770Z,18.80
2023-05-18T14:02:57.367Z,18.90
2023-05-18T14:05:25.137Z,18.90
2023-05-18T14:07:55.455Z,19.00
2023-05-18T14:10:22.852Z,18.80
2023-05-18T14:12:50.023Z,18.70
2023-05-18T14:15:17.155Z,18.70
2023-05-18T14:17:44.897Z,18.60
2023-05-18T14:20:13.108Z,18.50
2023-05-18T14:22:40.850Z,18.50
2023-05-18T14:25:08.512Z,18.50
2023-05-18T14:27:35.731Z,18.50
2023-05-18T14:30:03.075Z,18.50
2023-05-18T14:32:30.273Z,18.40
2023-05-18T14:34:58.341Z,18.40
2023-05-18T14:37:25.966Z,18.50
2023-05-18T14:39:53.337Z,18.60
2023-05-18T14:42:20.638Z,18.70
2023-05-18T14:44:47.893Z,18.60
2023-05-18T14:47:15.132Z,18.50
2023-05-18T14:49:42.316Z,18.30
2023-05-18T14:52:09.563Z,18.10
2023-05-18T14:54:36.916Z,18.00
2023-05-18T14:57:04.604Z,18.00
2023-05-18T14:59:31.799Z,18.00
2023-05-18T15:01:59.422Z,18.00
2023-05-18T15:04:26.638Z,18.00
2023-05-18T15:06:53.941Z,17.90
2023-05-18T15:09:21.240Z,17.80
2023-05-18T15:11:48.530Z,17.70
2023-05-18T15:14:15.934Z,17.60
2023-05-18T15:16:43.183Z,17.60
2023-05-18T15:19:10.561Z,17.60
2023-05-18T15:21:37.836Z,17.40
2023-05-18T15:24:05.149Z,17.40
2023-05-18T15:26:32.617Z,17.40
2023-05-18T15:28:59.916Z,17.50
2023-05-18T15:31:27.207Z,17.50
2023-05-18T15:33:54.495Z,17.40
2023-05-18T15:36:22.001Z,17.40
2023-05-18T15:38:49.323Z,17.50
2023-05-18T15:41:16.750Z,17.40
2023-05-18T15:43:44.554Z,17.40
2023-05-18T15:46:11.875Z,17.40
2023-05-18T15:48:39.070Z,17.40
2023-05-18T15:51:06.512Z,17.40
2023-05-18T15:53:33.638Z,17.30
2023-05-18T15:56:00.826Z,17.30
2023-05-18T15:58:28.508Z,17.30
2023-05-18T16:00:55.857Z,17.20
2023-05-18T16:03:23.304Z,17.10
2023-05-18T16:05:50.702Z,17.00
2023-05-18T16:08:18.044Z,17.00
2023-05-18T16:10:45.205Z,16.90
2023-05-18T16:13:12.467Z,16.90
2023-05-18T16:15:39.663Z,16.90
2023-05-18T16:18:07.555Z,16.90
2023-05-18T16:20:34.917Z,16.90
2023-05-18T16:23:02.301Z,16.90
2023-05-18T16:25:29.546Z,16.90
2023-05-18T16:27:57.062Z,17.00
2023-05-18T16:30:24.670Z,17.00
2023-05-18T16:32:51.908Z,16.90
2023-05-18T16:35:19.574Z,16.80
2023-05-18T16:37:46.746Z,16.70
2023-05-18T16:40:14.188Z,16.60
2023-05-18T16:42:41.399Z,16.50
2023-05-18T16:45:08.985Z,16.50
2023-05-18T16:47:36.388Z,16.40
2023-05-18T16:50:03.843Z,16.40
2023-05-18T16:52:30.996Z,16.50
2023-05-18T16:54:58.402Z,16.50
2023-05-18T16:57:27.665Z,16.50
2023-05-18T16:59:55.129Z,16.40
2023-05-18T17:02:24.560Z,16.40
2023-05-18T17:04:51.877Z,16.30
2023-05-18T17:07:19.404Z,16.20
2023-05-18T17:09:46.649Z,16.30
2023-05-18T17:12:13.916Z,16.20
2023-05-18T17:14:41.228Z,16.00
2023-05-18T17:17:08.725Z,15.90
2023-05-18T17:19:36.496Z,15.80
2023-05-18T17:22:04.901Z,15.60
2023-05-18T17:24:32.334Z,15.60
2023-05-18T17:26:59.554Z,15.50
2023-05-18T17:29:27.392Z,15.50
2023-05-18T17:31:54.833Z,15.50
2023-05-18T17:34:23.078Z,15.50
2023-05-18T17:36:50.292Z,15.40
2023-05-18T17:39:17.517Z,15.40
2023-05-18T17:41:45.599Z,15.40
2023-05-18T17:44:16.726Z,15.40
2023-05-18T17:46:47.852Z,15.30
2023-05-18T17:49:17.282Z,15.30
2023-05-18T17:51:46.001Z,15.20
2023-05-18T17:54:13.173Z,15.10
2023-05-18T17:56:40.425Z,15.10
2023-05-18T17:59:07.635Z,15.10
2023-05-18T18:01:35.372Z,15.00
2023-05-18T18:04:02.864Z,15.00
2023-05-18T18:06:31.740Z,15.00
2023-05-18T18:08:59.630Z,15.00
2023-05-18T18:11:27.424Z,15.00
2023-05-18T18:13:55.513Z,15.00
2023-05-18T18:16:22.821Z,14.90
2023-05-18T18:18:50.913Z,14.80
2023-05-18T18:21:18.163Z,14.80
2023-05-18T18:23:45.742Z,14.70
2023-05-18T18:26:12.912Z,14.60
2023-05-18T18:28:40.238Z,14.60
2023-05-18T18:31:08.654Z,14.60
2023-05-18T18:33:35.974Z,14.60
2023-05-18T18:36:05.906Z,14.50
2023-05-18T18:38:34.394Z,14.40
2023-05-18T18:41:04.501Z,14.40
2023-05-18T18:43:32.186Z,14.40
2023-05-18T18:46:00.002Z,14.30
2023-05-18T18:48:27.699Z,14.30
2023-05-18T18:50:55.032Z,14.30
2023-05-18T18:53:22.994Z,14.20
2023-05-18T18:55:50.360Z,14.10
2023-05-18T18:58:17.622Z,14.00
2023-05-18T19:00:44.982Z,13.90
2023-05-18T19:03:14.772Z,13.80
2023-05-18T19:05:42.079Z,13.80
2023-05-18T19:08:09.351Z,13.70
2023-05-18T19:10:36.594Z,13.60
2023-05-18T19:13:06.090Z,13.50
2023-05-18T19:15:34.977Z,13.40
2023-05-18T19:18:03.299Z,13.30
2023-05-18T19:20:30.683Z,13.20
2023-05-18T19:22:58.378Z,13.20
2023-05-18T19:25:26.516Z,13.10
2023-05-18T19:27:53.976Z,13.10
2023-05-18T19:30:22.712Z,13.10
2023-05-18T19:32:51.754Z,13.10
2023-05-18T19:35:20.293Z,13.00
2023-05-18T19:37:48.276Z,13.00
2023-05-18T19:40:16.487Z,13.00
2023-05-18T19:42:43.893Z,12.90
2023-05-18T19:45:11.427Z,12.90
2023-05-18T19:47:39.126Z,12.90
2023-05-18T19:50:07.376Z,12.80
2023-05-18T19:52:35.035Z,12.70
2023-05-18T19:55:02.667Z,12.60
2023-05-18T19:57:30.031Z,12.60
2023-05-18T19:59:58.082Z,12.50
2023-05-18T20:02:25.336Z,12.50
2023-05-18T20:04:53.828Z,12.50
2023-05-18T20:07:22.713Z,12.40
2023-05-18T20:09:53.258Z,12.40
2023-05-18T20:12:20.881Z,12.40
2023-05-18T20:14:52.676Z,12.30
2023-05-18T20:17:22.091Z,12.20
2023-05-18T20:19:52.331Z,12.20
2023-05-18T20:22:20.309Z,12.10
2023-05-18T20:24:47.675Z,12.00
2023-05-18T20:27:16.192Z,12.00
2023-05-18T20:29:44.550Z,12.00
2023-05-18T20:32:11.905Z,12.00
2023-05-18T20:34:41.395Z,11.90
2023-05-18T20:37:10.930Z,11.80
2023-05-18T20:39:40.805Z,11.80
2023-05-18T20:42:12.838Z,11.80
2023-05-18T20:44:40.236Z,11.80
2023-05-18T20:47:07.708Z,11.70
2023-05-18T20:49:34.895Z,11.70
2023-05-18T20:52:02.220Z,11.60
2023-05-18T20:54:29.572Z,11.70
2023-05-18T20:56:57.024Z,11.60
2023-05-18T20:59:24.067Z,11.60
2023-05-18T21:01:51.617Z,11.60
2023-05-18T21:04:19.517Z,11.50
2023-05-18T21:06:47.029Z,11.40
2023-05-18T21:09:14.267Z,11.40
2023-05-18T21:11:41.924Z,11.40
2023-05-18T21:14:09.238Z,11.30
2023-05-18T21:16:36.994Z,11.30
2023-05-18T21:19:04.304Z,11.20
2023-05-18T21:21:31.936Z,11.20
2023-05-18T21:23:59.241Z,11.20
2023-05-18T21:26:27.122Z,11.10
2023-05-18T21:28:57.596Z,11.10
2023-05-18T21:31:24.897Z,11.10
2023-05-18T21:33:52.919Z,11.10
2023-05-18T21:36:34.369Z,11.10
2023-05-18T21:39:02.871Z,11.10
2023-05-18T21:41:31.013Z,11.10
2023-05-18T21:43:58.186Z,11.00
2023-05-18T21:46:25.692Z,11.00
2023-05-18T21:48:53.430Z,11.00
2023-05-18T21:51:20.768Z,10.90
2023-05-18T21:53:50.777Z,10.80
2023-05-18T21:56:18.442Z,10.80
2023-05-18T21:58:45.802Z,10.80
2023-05-18T22:01:13.151Z,10.70
2023-05-18T22:03:40.394Z,10.70
2023-05-18T22:06:07.777Z,10.60
2023-05-18T22:08:35.388Z,10.60
2023-05-18T22:11:02.845Z,10.50
2023-05-18T22:13:31.028Z,10.50
2023-05-18T22:15:58.171Z,10.40
2023-05-18T22:18:27.384Z,10.40
2023-05-18T22:20:55.295Z,10.40
2023-05-18T22:23:23.540Z,10.40
2023-05-18T22:25:50.647Z,10.30
2023-05-18T22:28:21.754Z,10.30
2023-05-18T22:30:50.243Z,10.20
2023-05-18T22:33:17.705Z,10.20
2023-05-18T22:35:45.274Z,10.20
2023-05-18T22:38:12.681Z,10.10
2023-05-18T22:40:40.182Z,10.10
2023-05-18T22:43:07.483Z,10.10
2023-05-18T22:45:35.153Z,10.10
2023-05-18T22:48:02.873Z,10.10
2023-05-18T22:50:30.379Z,10.00
2023-05-18T22:52:59.414Z,10.10
2023-05-18T22:55:26.518Z,10.00
2023-05-18T22:57:53.735Z,10.00
2023-05-18T23:00:21.105Z,10.00
2023-05-18T23:02:48.406Z,9.90
2023-05-18T23:05:16.187Z,9.90
2023-05-18T23:07:43.382Z,9.90
2023-05-18T23:10:11.533Z,9.90
2023-05-18T23:12:40.236Z,9.80
2023-05-18T23:15:08.278Z,9.80
2023-05-18T23:17:39.190Z,9.80
2023-05-18T23:20:07.753Z,9.80
2023-05-18T23:22:35.244Z,9.80
2023-05-18T23:25:04.768Z,9.80
2023-05-18T23:27:32.117Z,9.80
2023-05-18T23:29:59.346Z,9.70
2023-05-18T23:32:27.182Z,9.70
2023-05-18T23:34:56.401Z,9.70
2023-05-18T23:37:25.023Z,9.70
2023-05-18T23:39:53.238Z,9.70
2023-05-18T23:42:21.264Z,9.70
2023-05-18T23:44:49.300Z,9.70
2023-05-18T23:47:17.198Z,9.60
2023-05-18T23:49:45.319Z,9.60
2023-05-18T23:52:16.505Z,9.60
2023-05-18T23:54:45.926Z,9.60
2023-05-18T23:57:14.319Z,9.50
2023-05-18T23:59:42.578Z,9.50
